createdAt,value
2018-11-29T00:01:14.218Z,17.70
2018-11-29T00:03:18.215Z,16.52
2018-11-29T00:05:22.067Z,16.57
2018-11-29T00:07:25.562Z,16.10
2018-11-29T00:09:33.066Z,17.70
2018-11-29T00:11:36.624Z,16.42
2018-11-29T00:13:40.542Z,15.80
2018-11-29T00:15:44.062Z,17.40
2018-11-29T00:17:47.958Z,17.00
2018-11-29T00:19:51.190Z,17.07
2018-11-29T00:21:54.734Z,17.40
2018-11-29T00:23:58.266Z,17.20
2018-11-29T00:26:01.846Z,16.50
2018-11-29T00:28:06.246Z,16.50
2018-11-29T00:30:13.846Z,15.93
2018-11-29T00:32:17.398Z,16.85
2018-11-29T00:34:20.883Z,16.80
2018-11-29T00:36:24.377Z,16.60
2018-11-29T00:38:27.887Z,17.02
2018-11-29T00:40:31.356Z,17.37
2018-11-29T00:42:34.842Z,17.65
2018-11-29T00:44:38.574Z,17.45
2018-11-29T00:46:42.151Z,16.00
2018-11-29T00:48:45.362Z,17.65
2018-11-29T00:50:48.610Z,16.43
2018-11-29T00:52:52.175Z,17.80
2018-11-29T00:54:55.642Z,17.30
2018-11-29T00:56:59.345Z,18.05
2018-11-29T00:59:02.551Z,17.07
2018-11-29T01:01:06.515Z,17.47
2018-11-29T01:03:10.293Z,18.75
2018-11-29T01:05:14.103Z,17.30
2018-11-29T01:07:17.660Z,17.40
2018-11-29T01:09:20.902Z,18.80
2018-11-29T01:11:24.428Z,16.55
2018-11-29T01:13:27.930Z,17.70
2018-11-29T01:15:31.778Z,17.90
2018-11-29T01:17:35.036Z,17.70
2018-11-29T01:19:38.689Z,17.82
2018-11-29T01:21:42.214Z,19.10
2018-11-29T01:23:45.682Z,17.92
2018-11-29T01:25:49.163Z,18.57
2018-11-29T01:27:53.189Z,19.30
2018-11-29T01:29:56.682Z,18.85
2018-11-29T01:32:00.225Z,19.20
2018-11-29T01:34:04.074Z,17.95
2018-11-29T01:36:07.670Z,18.13
2018-11-29T01:38:11.138Z,18.98
2018-11-29T01:40:18.974Z,19.00
2018-11-29T01:42:22.270Z,19.37
2018-11-29T01:44:25.487Z,18.17
2018-11-29T01:46:29.075Z,18.23
2018-11-29T01:48:32.558Z,17.62
2018-11-29T01:50:36.394Z,18.27
2018-11-29T01:52:39.633Z,18.50
2018-11-29T01:54:43.115Z,18.40
2018-11-29T01:56:46.604Z,17.50
2018-11-29T01:58:50.034Z,19.77
2018-11-29T02:00:53.509Z,17.37
2018-11-29T02:02:56.874Z,17.97
2018-11-29T02:05:00.350Z,18.17
2018-11-29T02:07:03.863Z,17.07
2018-11-29T02:09:08.804Z,17.70
2018-11-29T02:11:12.560Z,18.37
2018-11-29T02:13:16.026Z,17.65
2018-11-29T02:15:19.786Z,17.73
2018-11-29T02:17:23.245Z,18.73
2018-11-29T02:19:26.918Z,17.60
2018-11-29T02:21:30.233Z,17.62
2018-11-29T02:23:33.438Z,17.60
2018-11-29T02:25:37.592Z,18.00
2018-11-29T02:27:41.513Z,17.85
2018-11-29T02:29:45.318Z,19.10
2018-11-29T02:31:48.819Z,17.00
2018-11-29T02:33:52.299Z,17.70
2018-11-29T02:35:56.137Z,19.48
2018-11-29T02:37:59.617Z,17.35
2018-11-29T02:40:02.853Z,16.73
2018-11-29T02:42:06.925Z,18.25
2018-11-29T02:44:10.756Z,18.75
2018-11-29T02:46:13.982Z,18.17
2018-11-29T02:48:17.471Z,18.35
2018-11-29T02:50:20.986Z,19.10
2018-11-29T02:52:24.783Z,19.10
2018-11-29T02:54:28.158Z,17.43
2018-11-29T02:56:32.049Z,19.17
2018-11-29T02:58:35.719Z,17.40
2018-11-29T03:00:39.170Z,17.55
2018-11-29T03:02:42.722Z,19.00
2018-11-29T03:04:46.339Z,17.70
2018-11-29T03:06:49.841Z,17.57
2018-11-29T03:08:53.310Z,16.67
2018-11-29T03:10:56.546Z,17.93
2018-11-29T03:13:00.525Z,17.75
2018-11-29T03:15:04.402Z,17.57
2018-11-29T03:17:07.630Z,18.80
2018-11-29T03:19:10.820Z,19.03
2018-11-29T03:21:14.294Z,18.45
2018-11-29T03:23:17.801Z,19.17
2018-11-29T03:25:21.506Z,18.95
2018-11-29T03:27:24.965Z,18.35
2018-11-29T03:29:28.882Z,17.62
2018-11-29T03:31:32.447Z,18.20
2018-11-29T03:33:35.936Z,19.25
2018-11-29T03:35:44.308Z,17.13
2018-11-29T03:37:43.097Z,17.95
2018-11-29T03:39:46.403Z,19.63
2018-11-29T03:41:49.891Z,20.57
2018-11-29T03:43:53.734Z,18.07
2018-11-29T03:45:57.207Z,18.52
2018-11-29T03:48:00.438Z,19.60
2018-11-29T03:50:05.511Z,19.02
2018-11-29T03:52:09.050Z,19.90
2018-11-29T03:54:12.616Z,19.20
2018-11-29T03:56:16.351Z,17.82
2018-11-29T03:58:19.593Z,18.75
2018-11-29T04:00:23.190Z,19.23
2018-11-29T04:02:26.647Z,17.27
2018-11-29T04:04:29.837Z,18.83
2018-11-29T04:06:33.373Z,19.42
2018-11-29T04:08:36.861Z,19.10
2018-11-29T04:10:41.211Z,18.17
2018-11-29T04:12:44.632Z,16.77
2018-11-29T04:14:48.042Z,17.45
2018-11-29T04:16:51.850Z,18.10
2018-11-29T04:18:55.619Z,18.45
2018-11-29T04:20:59.497Z,18.17
2018-11-29T04:23:02.947Z,20.23
2018-11-29T04:25:07.614Z,19.10
2018-11-29T04:27:11.319Z,19.50
2018-11-29T04:29:15.464Z,21.50
2018-11-29T04:31:18.956Z,19.27
2018-11-29T04:33:22.346Z,19.87
2018-11-29T04:35:25.857Z,20.50
2018-11-29T04:37:29.699Z,20.08
2018-11-29T04:39:33.220Z,20.23
2018-11-29T04:41:36.958Z,20.02
2018-11-29T04:43:40.448Z,20.55
2018-11-29T04:46:52.230Z,20.57
2018-11-29T04:48:55.567Z,20.87
2018-11-29T04:50:58.882Z,20.20
2018-11-29T04:53:02.420Z,19.32
2018-11-29T04:55:06.304Z,20.82
2018-11-29T04:57:09.866Z,20.02
2018-11-29T04:59:13.375Z,20.52
2018-11-29T05:01:16.895Z,19.77
2018-11-29T05:03:20.571Z,21.30
2018-11-29T05:05:24.047Z,20.85
2018-11-29T05:07:27.731Z,20.82
2018-11-29T05:09:31.017Z,21.00
2018-11-29T05:11:34.495Z,20.12
2018-11-29T05:13:38.290Z,21.82
2018-11-29T05:15:42.042Z,21.60
2018-11-29T05:17:45.286Z,21.87
2018-11-29T05:19:49.502Z,19.90
2018-11-29T05:21:53.444Z,20.52
2018-11-29T05:23:57.077Z,21.15
2018-11-29T05:26:00.274Z,23.00
2018-11-29T05:28:03.792Z,22.60
2018-11-29T05:30:11.720Z,20.35
2018-11-29T05:32:14.939Z,21.70
2018-11-29T05:34:18.551Z,20.43
2018-11-29T05:36:22.210Z,21.82
2018-11-29T05:38:25.751Z,22.45
2018-11-29T05:40:29.656Z,21.17
2018-11-29T05:42:33.171Z,21.77
2018-11-29T05:44:36.359Z,22.93
2018-11-29T05:46:39.630Z,21.77
2018-11-29T05:48:43.165Z,22.77
2018-11-29T05:50:46.836Z,21.80
2018-11-29T05:52:51.863Z,21.42
2018-11-29T05:54:55.441Z,23.95
2018-11-29T05:56:58.885Z,23.98
2018-11-29T05:59:02.807Z,23.25
2018-11-29T06:01:14.142Z,22.60
2018-11-29T06:03:17.625Z,23.70
2018-11-29T06:05:21.068Z,21.33
2018-11-29T06:07:25.022Z,23.60
2018-11-29T06:09:28.564Z,23.00
2018-11-29T06:11:32.398Z,23.95
2018-11-29T06:13:35.870Z,23.70
2018-11-29T06:15:39.285Z,23.32
2018-11-29T06:17:43.414Z,24.55
2018-11-29T06:19:47.042Z,23.70
2018-11-29T06:21:50.262Z,23.63
2018-11-29T06:23:54.022Z,23.60
2018-11-29T06:25:57.245Z,20.40
2018-11-29T06:28:00.722Z,22.65
2018-11-29T06:30:06.601Z,22.35
2018-11-29T06:32:10.494Z,23.15
2018-11-29T06:34:14.031Z,23.40
2018-11-29T06:36:17.644Z,22.27
2018-11-29T06:38:21.154Z,23.12
2018-11-29T06:40:25.030Z,24.15
2018-11-29T06:42:28.586Z,23.40
2018-11-29T06:44:32.108Z,23.90
2018-11-29T06:46:36.657Z,23.35
2018-11-29T06:48:40.133Z,23.62
2018-11-29T06:50:43.584Z,22.80
2018-11-29T06:52:48.294Z,22.97
2018-11-29T06:54:51.810Z,25.80
2018-11-29T06:56:55.776Z,23.83
2018-11-29T06:58:59.922Z,24.40
2018-11-29T07:01:03.422Z,24.75
2018-11-29T07:03:07.256Z,24.35
2018-11-29T07:05:10.799Z,25.25
2018-11-29T07:07:14.019Z,23.77
2018-11-29T07:09:17.545Z,22.17
2018-11-29T07:11:21.358Z,21.93
2018-11-29T07:13:25.193Z,24.15
2018-11-29T07:15:28.704Z,23.95
2018-11-29T07:17:32.406Z,23.75
2018-11-29T07:19:35.873Z,24.35
2018-11-29T07:21:50.893Z,23.27
2018-11-29T07:23:54.318Z,23.43
2018-11-29T07:25:58.155Z,23.55
2018-11-29T07:28:01.520Z,23.83
2018-11-29T07:30:08.252Z,23.90
2018-11-29T07:32:13.323Z,24.00
2018-11-29T07:34:16.778Z,21.37
2018-11-29T07:36:20.270Z,21.68
2018-11-29T07:38:23.794Z,22.30
2018-11-29T07:40:27.304Z,22.93
2018-11-29T07:42:30.577Z,23.47
2018-11-29T07:44:34.466Z,23.60
2018-11-29T07:46:38.466Z,22.93
2018-11-29T07:48:41.922Z,22.20
2018-11-29T07:50:45.730Z,23.60
2018-11-29T07:52:49.329Z,23.17
2018-11-29T07:54:52.957Z,20.88
2018-11-29T07:56:56.465Z,22.42
2018-11-29T07:59:00.222Z,23.15
2018-11-29T08:01:03.716Z,23.10
2018-11-29T08:03:07.854Z,20.75
2018-11-29T08:05:12.390Z,23.47
2018-11-29T08:07:15.822Z,23.07
2018-11-29T08:09:19.618Z,22.95
2018-11-29T08:11:23.088Z,21.70
2018-11-29T08:13:26.290Z,23.00
2018-11-29T08:15:30.070Z,22.40
2018-11-29T08:17:33.568Z,23.30
2018-11-29T08:19:37.047Z,21.87
2018-11-29T08:21:40.528Z,21.97
2018-11-29T08:23:43.753Z,22.40
2018-11-29T08:25:47.262Z,22.85
2018-11-29T08:27:50.796Z,20.75
2018-11-29T08:29:54.615Z,24.23
2018-11-29T08:31:57.807Z,23.05
2018-11-29T08:34:01.038Z,23.20
2018-11-29T08:36:05.219Z,23.92
2018-11-29T08:38:08.782Z,23.05
2018-11-29T08:40:13.551Z,23.27
2018-11-29T08:42:17.210Z,22.48
2018-11-29T08:44:20.810Z,22.30
2018-11-29T08:46:24.313Z,21.07
2018-11-29T08:48:28.124Z,21.07
2018-11-29T08:50:31.392Z,22.07
2018-11-29T08:52:34.910Z,22.90
2018-11-29T08:54:38.814Z,20.88
2018-11-29T08:56:42.736Z,22.20
2018-11-29T08:58:46.232Z,21.20
2018-11-29T09:00:49.817Z,20.75
2018-11-29T09:02:53.378Z,22.30
2018-11-29T09:04:57.658Z,21.45
2018-11-29T09:07:01.216Z,22.30
2018-11-29T09:09:07.374Z,23.20
2018-11-29T09:11:11.215Z,20.70
2018-11-29T09:13:15.349Z,21.37
2018-11-29T09:15:19.265Z,21.35
2018-11-29T09:17:22.768Z,20.80
2018-11-29T09:19:26.011Z,20.23
2018-11-29T09:21:29.560Z,19.80
2018-11-29T09:23:33.034Z,21.02
2018-11-29T09:25:36.799Z,19.67
2018-11-29T09:27:40.014Z,21.57
2018-11-29T09:29:43.229Z,20.37
2018-11-29T09:31:47.217Z,20.70
2018-11-29T09:33:51.202Z,21.82
2018-11-29T09:35:54.663Z,19.57
2018-11-29T09:37:58.648Z,20.52
2018-11-29T09:40:02.502Z,19.95
2018-11-29T09:42:06.222Z,19.48
2018-11-29T09:44:09.422Z,21.42
2018-11-29T09:46:12.972Z,18.60
2018-11-29T09:48:16.514Z,20.05
2018-11-29T09:50:20.238Z,19.40
2018-11-29T09:52:23.698Z,19.55
2018-11-29T09:54:26.920Z,18.97
2018-11-29T09:56:30.593Z,18.55
2018-11-29T09:58:33.876Z,20.37
2018-11-29T10:00:37.434Z,18.30
2018-11-29T10:02:41.276Z,20.00
2018-11-29T10:04:44.791Z,19.75
2018-11-29T10:06:48.282Z,20.30
2018-11-29T10:08:52.182Z,19.02
2018-11-29T10:10:55.359Z,17.97
2018-11-29T10:13:00.523Z,20.50
2018-11-29T10:15:04.692Z,19.60
2018-11-29T10:17:08.206Z,18.60
2018-11-29T10:19:11.491Z,19.95
2018-11-29T10:21:15.222Z,19.93
2018-11-29T10:23:18.744Z,16.80
2018-11-29T10:25:22.378Z,18.65
2018-11-29T10:27:26.015Z,18.23
2018-11-29T10:29:29.574Z,19.77
2018-11-29T10:31:33.581Z,20.08
2018-11-29T10:33:37.309Z,20.10
2018-11-29T10:35:40.778Z,18.70
2018-11-29T10:37:43.962Z,19.73
2018-11-29T10:39:48.410Z,18.15
2018-11-29T10:41:51.932Z,19.32
2018-11-29T10:43:55.157Z,19.57
2018-11-29T10:45:58.696Z,19.02
2018-11-29T10:48:02.684Z,17.48
2018-11-29T10:50:10.620Z,18.85
2018-11-29T10:52:14.170Z,18.27
2018-11-29T10:54:18.145Z,17.57
2018-11-29T10:56:21.666Z,17.95
2018-11-29T10:58:26.398Z,18.57
2018-11-29T11:00:34.041Z,19.52
2018-11-29T11:02:41.791Z,18.17
2018-11-29T11:04:45.291Z,17.70
2018-11-29T11:06:48.805Z,17.23
2018-11-29T11:08:52.729Z,17.85
2018-11-29T11:10:56.565Z,17.32
2018-11-29T11:13:00.096Z,18.32
2018-11-29T11:15:03.838Z,17.83
2018-11-29T11:17:07.860Z,18.70
2018-11-29T11:19:11.696Z,18.25
2018-11-29T11:21:15.363Z,18.30
2018-11-29T11:23:18.605Z,17.40
2018-11-29T11:25:21.860Z,17.10
2018-11-29T11:27:25.355Z,18.32
2018-11-29T11:29:28.834Z,18.02
2018-11-29T11:31:32.624Z,15.90
2018-11-29T11:33:36.470Z,17.67
2018-11-29T11:35:40.207Z,18.37
2018-11-29T11:37:43.676Z,17.30
2018-11-29T11:39:47.482Z,17.50
2018-11-29T11:41:50.971Z,17.40
2018-11-29T11:43:55.204Z,17.30
2018-11-29T11:45:58.378Z,17.60
2018-11-29T11:48:03.472Z,17.70
2018-11-29T11:50:10.947Z,16.55
2018-11-29T11:52:14.650Z,18.95
2018-11-29T11:54:18.318Z,17.50
2018-11-29T11:56:21.908Z,17.52
2018-11-29T11:58:25.567Z,17.37
2018-11-29T12:00:30.302Z,18.32
2018-11-29T12:02:33.792Z,16.65
2018-11-29T12:04:36.966Z,17.70
2018-11-29T12:06:40.230Z,17.45
2018-11-29T12:08:43.734Z,18.23
2018-11-29T12:10:47.248Z,17.77
2018-11-29T12:12:50.875Z,18.87
2018-11-29T12:14:54.415Z,17.48
2018-11-29T12:16:57.639Z,18.07
2018-11-29T12:19:02.347Z,17.80
2018-11-29T12:21:04.723Z,17.25
2018-11-29T12:23:08.729Z,17.62
2018-11-29T12:25:13.894Z,17.40
2018-11-29T12:27:17.616Z,16.27
2018-11-29T12:29:20.844Z,17.90
2018-11-29T12:31:25.138Z,16.80
2018-11-29T12:33:27.788Z,17.90
2018-11-29T12:35:31.287Z,16.73
2018-11-29T12:37:34.822Z,17.00
2018-11-29T12:39:38.864Z,16.62
2018-11-29T12:41:42.876Z,16.97
2018-11-29T12:43:49.193Z,17.70
2018-11-29T12:45:52.765Z,18.50
2018-11-29T12:47:57.149Z,18.10
2018-11-29T12:50:00.994Z,17.40
2018-11-29T12:52:04.941Z,18.60
2018-11-29T12:54:08.395Z,16.55
2018-11-29T12:56:12.991Z,17.75
2018-11-29T12:58:16.474Z,16.75
2018-11-29T13:00:21.673Z,15.68
2018-11-29T13:02:24.880Z,17.27
2018-11-29T13:04:28.415Z,16.97
2018-11-29T13:06:31.993Z,16.65
2018-11-29T13:08:35.786Z,17.00
2018-11-29T13:10:39.033Z,17.35
2018-11-29T13:12:44.046Z,17.23
2018-11-29T13:14:47.636Z,15.67
2018-11-29T13:16:51.255Z,16.62
2018-11-29T13:18:54.822Z,17.82
2018-11-29T13:21:02.160Z,16.32
2018-11-29T13:23:07.126Z,15.60
2018-11-29T13:25:15.059Z,18.10
2018-11-29T13:27:18.370Z,15.30
2018-11-29T13:29:21.572Z,16.47
2018-11-29T13:31:25.037Z,16.07
2018-11-29T13:33:28.503Z,16.93
2018-11-29T13:35:35.476Z,15.60
2018-11-29T13:37:38.710Z,16.50
2018-11-29T13:39:48.696Z,15.03
2018-11-29T13:41:52.057Z,16.40
2018-11-29T13:43:55.501Z,15.60
2018-11-29T13:45:59.038Z,15.43
2018-11-29T13:48:02.566Z,14.80
2018-11-29T13:50:09.242Z,14.78
2018-11-29T13:52:12.858Z,15.18
2018-11-29T13:54:16.810Z,15.05
2018-11-29T13:56:20.367Z,15.28
2018-11-29T13:58:23.837Z,15.78
2018-11-29T14:00:27.308Z,15.55
2018-11-29T14:02:31.164Z,14.30
2018-11-29T14:04:34.664Z,14.45
2018-11-29T14:06:38.273Z,14.50
2018-11-29T14:08:42.052Z,15.18
2018-11-29T14:10:45.639Z,14.18
2018-11-29T14:12:50.069Z,13.13
2018-11-29T14:14:54.318Z,15.08
2018-11-29T14:16:57.787Z,15.28
2018-11-29T14:19:01.639Z,13.90
2018-11-29T14:21:05.694Z,14.80
2018-11-29T14:23:09.553Z,14.13
2018-11-29T14:25:14.103Z,14.65
2018-11-29T14:27:17.469Z,13.73
2018-11-29T14:29:21.084Z,13.00
2018-11-29T14:31:24.423Z,14.00
2018-11-29T14:33:28.052Z,11.65
2018-11-29T14:35:31.593Z,13.18
2018-11-29T14:37:35.152Z,14.13
2018-11-29T14:39:39.486Z,13.60
2018-11-29T14:41:42.708Z,14.07
2018-11-29T14:43:46.232Z,12.95
2018-11-29T14:45:49.715Z,14.70
2018-11-29T14:47:53.267Z,13.80
2018-11-29T14:49:56.793Z,14.47
2018-11-29T14:52:00.099Z,14.20
2018-11-29T14:54:03.905Z,13.40
2018-11-29T14:56:07.168Z,12.83
2018-11-29T14:58:19.631Z,13.05
2018-11-29T15:00:19.294Z,13.30
2018-11-29T15:02:28.104Z,13.30
2018-11-29T15:04:34.389Z,13.17
2018-11-29T15:06:38.550Z,11.33
2018-11-29T15:08:42.343Z,12.03
2018-11-29T15:10:45.685Z,12.80
2018-11-29T15:12:49.715Z,12.80
2018-11-29T15:14:53.241Z,12.58
2018-11-29T15:16:56.759Z,12.80
2018-11-29T15:19:00.276Z,12.37
2018-11-29T15:21:04.590Z,12.45
2018-11-29T15:23:09.175Z,12.10
2018-11-29T15:25:12.926Z,12.58
2018-11-29T15:29:31.625Z,11.70
2018-11-29T15:31:35.134Z,11.70
2018-11-29T15:33:38.740Z,12.50
2018-11-29T15:35:42.615Z,11.70
2018-11-29T15:37:46.466Z,11.10
2018-11-29T15:39:50.135Z,11.97
2018-11-29T15:41:53.355Z,11.10
2018-11-29T15:43:56.842Z,11.10
2018-11-29T15:46:00.313Z,11.60
2018-11-29T15:48:03.625Z,11.95
2018-11-29T15:50:10.410Z,12.35
2018-11-29T15:52:13.727Z,11.10
2018-11-29T15:54:17.294Z,10.43
2018-11-29T15:56:20.590Z,11.63
2018-11-29T15:58:23.818Z,11.63
2018-11-29T16:00:28.671Z,10.43
2018-11-29T16:02:32.247Z,11.50
2018-11-29T16:04:35.876Z,11.38
2018-11-29T16:06:39.398Z,11.20
2018-11-29T16:08:42.904Z,11.00
2018-11-29T16:10:46.284Z,10.73
2018-11-29T16:12:49.878Z,10.93
2018-11-29T16:14:53.099Z,10.38
2018-11-29T16:16:56.343Z,11.70
2018-11-29T16:19:03.831Z,9.03
2018-11-29T16:21:03.889Z,10.58
2018-11-29T16:23:09.126Z,9.95
2018-11-29T16:25:13.014Z,10.98
2018-11-29T16:27:16.514Z,10.43
2018-11-29T16:29:20.035Z,10.93
2018-11-29T16:31:23.628Z,10.82
2018-11-29T16:33:31.978Z,10.68
2018-11-29T16:35:35.478Z,10.00
2018-11-29T16:37:38.670Z,10.90
2018-11-29T16:39:41.943Z,10.60
2018-11-29T16:41:45.450Z,10.55
2018-11-29T16:43:48.986Z,10.18
2018-11-29T16:45:52.479Z,9.80
2018-11-29T16:47:55.980Z,10.60
2018-11-29T16:49:59.530Z,9.50
2018-11-29T16:52:03.066Z,10.32
2018-11-29T16:54:06.630Z,10.20
2018-11-29T16:56:10.526Z,10.20
2018-11-29T16:58:17.722Z,9.03
2018-11-29T17:00:22.405Z,10.10
2018-11-29T17:02:26.852Z,9.15
2018-11-29T17:04:30.358Z,9.45
2018-11-29T17:06:33.658Z,9.33
2018-11-29T17:08:39.194Z,9.93
2018-11-29T17:10:42.747Z,9.80
2018-11-29T17:12:48.658Z,10.58
2018-11-29T17:14:53.168Z,9.83
2018-11-29T17:16:56.682Z,9.60
2018-11-29T17:19:00.012Z,8.98
2018-11-29T17:21:03.814Z,9.55
2018-11-29T17:23:08.350Z,9.70
2018-11-29T17:25:13.225Z,9.25
2018-11-29T17:27:16.810Z,9.95
2018-11-29T17:29:20.310Z,9.70
2018-11-29T17:31:23.808Z,9.80
2018-11-29T17:33:27.491Z,9.63
2018-11-29T17:35:31.055Z,9.10
2018-11-29T17:37:34.559Z,8.90
2018-11-29T17:39:38.190Z,9.60
2018-11-29T17:41:41.987Z,9.83
2018-11-29T17:43:45.552Z,9.50
2018-11-29T17:45:49.293Z,10.23
2018-11-29T17:47:58.098Z,10.72
2018-11-29T17:50:01.791Z,9.80
2018-11-29T17:52:05.573Z,10.03
2018-11-29T17:54:09.387Z,9.13
2018-11-29T17:56:13.015Z,8.98
2018-11-29T17:58:16.510Z,9.80
2018-11-29T18:00:21.534Z,8.68
2018-11-29T18:02:25.069Z,9.00
2018-11-29T18:04:28.528Z,9.95
2018-11-29T18:06:32.333Z,10.00
2018-11-29T18:08:35.596Z,9.30
2018-11-29T18:10:40.040Z,9.13
2018-11-29T18:12:44.464Z,8.80
2018-11-29T18:14:47.924Z,8.93
2018-11-29T18:16:51.495Z,9.25
2018-11-29T18:18:55.015Z,9.80
2018-11-29T18:20:58.505Z,9.18
2018-11-29T18:23:02.005Z,9.48
2018-11-29T18:25:07.431Z,9.07
2018-11-29T18:27:11.060Z,9.60
2018-11-29T18:29:14.364Z,9.13
2018-11-29T18:31:17.943Z,9.10
2018-11-29T18:33:21.427Z,9.60
2018-11-29T18:35:24.666Z,9.20
2018-11-29T18:37:28.186Z,9.23
2018-11-29T18:39:31.794Z,9.00
2018-11-29T18:41:35.354Z,9.23
2018-11-29T18:43:39.104Z,9.15
2018-11-29T18:45:42.587Z,9.58
2018-11-29T18:47:48.289Z,9.05
2018-11-29T18:49:51.160Z,9.60
2018-11-29T18:51:54.659Z,8.55
2018-11-29T18:53:58.541Z,8.60
2018-11-29T18:56:02.334Z,10.50
2018-11-29T18:58:06.878Z,9.30
2018-11-29T19:00:11.922Z,8.53
2018-11-29T19:02:15.483Z,8.55
2018-11-29T19:04:18.721Z,8.30
2018-11-29T19:06:22.246Z,9.70
2018-11-29T19:08:25.705Z,9.65
2018-11-29T19:10:28.926Z,7.97
2018-11-29T19:12:32.560Z,9.18
2018-11-29T19:14:36.004Z,9.03
2018-11-29T19:16:39.530Z,9.50
2018-11-29T19:18:43.232Z,9.90
2018-11-29T19:20:46.725Z,8.80
2018-11-29T19:22:50.201Z,9.20
2018-11-29T19:24:53.840Z,8.90
2018-11-29T19:26:57.359Z,8.83
2018-11-29T19:29:00.582Z,8.60
2018-11-29T19:31:04.951Z,8.55
2018-11-29T19:33:29.887Z,8.38
2018-11-29T19:35:33.437Z,8.75
2018-11-29T19:37:36.999Z,9.15
2018-11-29T19:39:40.551Z,9.10
2018-11-29T19:41:44.048Z,8.48
2018-11-29T19:43:47.806Z,9.25
2018-11-29T19:45:51.033Z,8.53
2018-11-29T19:47:54.313Z,9.53
2018-11-29T19:49:57.791Z,8.63
2018-11-29T19:52:01.340Z,9.00
2018-11-29T19:54:04.590Z,8.50
2018-11-29T19:56:08.193Z,8.70
2018-11-29T19:58:12.037Z,8.68
2018-11-29T20:00:16.072Z,8.88
2018-11-29T20:02:19.571Z,8.55
2018-11-29T20:04:22.766Z,8.80
2018-11-29T20:06:26.078Z,9.23
2018-11-29T20:08:29.618Z,7.83
2018-11-29T20:10:33.078Z,7.75
2018-11-29T20:12:36.858Z,8.10
2018-11-29T20:14:40.367Z,7.78
2018-11-29T20:16:43.543Z,7.30
2018-11-29T20:18:47.095Z,7.90
2018-11-29T20:20:51.157Z,7.90
2018-11-29T20:22:54.582Z,8.35
2018-11-29T20:24:57.881Z,8.15
2018-11-29T20:27:01.386Z,7.60
2018-11-29T20:29:04.894Z,7.15
2018-11-29T20:31:08.698Z,7.65
2018-11-29T20:33:12.248Z,7.42
2018-11-29T20:35:16.399Z,8.18
2018-11-29T20:37:19.882Z,8.60
2018-11-29T20:39:23.382Z,8.20
2018-11-29T20:41:26.679Z,7.60
2018-11-29T20:43:30.266Z,8.28
2018-11-29T20:45:40.770Z,7.60
2018-11-29T20:47:44.303Z,7.73
2018-11-29T20:49:47.770Z,8.38
2018-11-29T20:51:51.019Z,7.60
2018-11-29T20:53:54.631Z,7.87
2018-11-29T20:55:58.422Z,8.03
2018-11-29T20:58:01.909Z,7.80
2018-11-29T21:00:08.362Z,8.45
2018-11-29T21:02:11.554Z,8.50
2018-11-29T21:04:15.175Z,7.90
2018-11-29T21:06:18.774Z,8.20
2018-11-29T21:08:22.284Z,8.50
2018-11-29T21:10:26.403Z,8.20
2018-11-29T21:12:29.933Z,8.40
2018-11-29T21:14:33.411Z,8.10
2018-11-29T21:16:37.030Z,7.70
2018-11-29T21:18:41.066Z,8.10
2018-11-29T21:20:44.923Z,8.10
2018-11-29T21:22:49.596Z,8.65
2018-11-29T21:24:53.072Z,8.20
2018-11-29T21:26:56.615Z,8.13
2018-11-29T21:29:00.150Z,8.05
2018-11-29T21:31:03.674Z,8.03
2018-11-29T21:33:07.453Z,7.60
2018-11-29T21:35:13.466Z,8.45
2018-11-29T21:37:16.951Z,7.85
2018-11-29T21:39:20.160Z,8.30
2018-11-29T21:41:23.710Z,7.42
2018-11-29T21:43:27.418Z,7.30
2018-11-29T21:45:30.930Z,8.80
2018-11-29T21:47:34.574Z,7.10
2018-11-29T21:49:38.375Z,7.83
2018-11-29T21:51:41.721Z,7.40
2018-11-29T21:53:45.574Z,7.78
2018-11-29T21:55:48.903Z,7.42
2018-11-29T21:57:55.776Z,7.78
2018-11-29T21:59:59.331Z,7.27
2018-11-29T22:02:02.876Z,7.20
2018-11-29T22:04:06.338Z,7.63
2018-11-29T22:06:09.921Z,7.72
2018-11-29T22:08:13.442Z,6.70
2018-11-29T22:10:16.995Z,6.90
2018-11-29T22:12:20.847Z,7.30
2018-11-29T22:14:24.744Z,6.97
2018-11-29T22:16:28.524Z,7.53
2018-11-29T22:18:32.038Z,7.08
2018-11-29T22:20:35.642Z,7.50
2018-11-29T22:22:39.207Z,7.20
2018-11-29T22:24:42.702Z,6.70
2018-11-29T22:26:46.231Z,6.92
2018-11-29T22:28:49.979Z,7.10
2018-11-29T22:30:54.693Z,6.50
2018-11-29T22:32:58.846Z,6.33
2018-11-29T22:35:02.361Z,7.35
2018-11-29T22:37:06.083Z,7.80
2018-11-29T22:39:10.409Z,7.50
2018-11-29T22:41:15.302Z,6.40
2018-11-29T22:43:18.894Z,6.87
2018-11-29T22:45:22.110Z,6.23
2018-11-29T22:47:25.574Z,6.30
2018-11-29T22:49:29.062Z,7.30
2018-11-29T22:51:32.482Z,6.67
2018-11-29T22:53:36.076Z,6.80
2018-11-29T22:55:40.090Z,6.53
2018-11-29T22:57:43.566Z,6.45
2018-11-29T22:59:47.021Z,6.67
2018-11-29T23:01:50.662Z,6.08
2018-11-29T23:03:54.076Z,6.40
2018-11-29T23:05:57.755Z,6.50
2018-11-29T23:08:00.999Z,6.15
2018-11-29T23:10:05.503Z,6.37
2018-11-29T23:12:08.981Z,6.20
2018-11-29T23:14:12.154Z,6.28
2018-11-29T23:16:16.154Z,6.35
2018-11-29T23:18:19.601Z,6.07
2018-11-29T23:20:23.460Z,6.37
2018-11-29T23:22:27.283Z,6.40
2018-11-29T23:24:31.150Z,6.15
2018-11-29T23:26:34.955Z,6.62
2018-11-29T23:28:38.793Z,6.30
2018-11-29T23:30:42.377Z,6.30
2018-11-29T23:32:46.116Z,5.87
2018-11-29T23:34:49.554Z,6.33
2018-11-29T23:36:53.350Z,5.28
2018-11-29T23:38:56.583Z,5.97
2018-11-29T23:41:00.276Z,6.00
2018-11-29T23:43:04.126Z,6.20
2018-11-29T23:45:09.107Z,6.37
2018-11-29T23:47:12.877Z,6.30
2018-11-29T23:49:16.080Z,6.07
2018-11-29T23:51:19.658Z,6.50
2018-11-29T23:53:23.158Z,6.15
2018-11-29T23:55:26.371Z,5.60
2018-11-29T23:57:29.844Z,5.90
2018-11-29T23:59:33.831Z,5.75
